Main page
METAR-TAF:

METAR-TAF

Airports :

Kuwait City, Kuwait

Kuwait International Airport

latitude: 29-13N, longitude: 047-59E, elevation: 55 m

Current weather observation

The report was made 57 minutes ago, at 09:00 UTC
Wind 9 kt from the Northeast
Temperature 33°C
Humidity 13%
Pressure 1011 hPa
Visibility 10 km or more
no clouds below 1500 m and no cumulonimbus

METAR: OKBK 220900Z 04009KT CAVOK 33/01 Q1011 NOSIG

Time: 12:57 (09:57 UTC)

Forecast

The report was made 5 hours and 12 minutes ago, at 04:45 UTC
Forecast valid from 22 at 06 UTC to 23 at 12 UTC
Wind 8 kt from the North
Visibility: 7000 m
Clear sky
Becoming
from 22 at 10 UTC to 22 at 12 UTC
Wind 3 kt from variable directions

TAF: OKBK 220445Z 2206/2312 35008KT 7000 SKC BECMG 2210/2212 VRB03KT

Weather observations and forecasts of more than 4000 airports (METAR and TAF reports).

The available stations are represented by yellow and red dots on the map.

Hover mouse over dot to see the name of the station.

Then click to see weather observations and forecasts.

To change the map : click on the green buttons with a black cross to zoom in, on the green button with a dash to zoom out, or on the green arrows for adjacent maps.


METAR-TAF: